Terminal Aerodrome Forecast
Issued by NWS

Home | Current Version | Previous Version | Text Only | Print | Product List | Glossary On
Versions: 1 2 3 4 5 6 7 8 9 10 11 12 13 14 15
000
FTUS45 KVEF 272320
TAFEED
TAF
KEED 272320Z 2800/2824 24008KT P6SM VCTS SCT100CB BKN200
     FM280100 24006KT P6SM SCT100
     FM281000 VRB04KT P6SM SKC
     FM282100 19007KT P6SM FEW120=

USA.gov is the U.S. government's official web portal to all federal, state and local government web resources and services.